Time;durP1;ratioP1;P1;durP2;ratioP2;P2;SDS_P1;SDS_P2;PMS_P1;PMS_P2;Temp;Humidity;BMP_temperature;BMP_pressure;BME280_temperature;BME280_humidity;BME280_pressure;Samples;Min_cycle;Max_cycle;Signal;HPM_P1;HPM_P2
2022/04/15 00:02:02;;;;;;;6.67;3.67;;;15.30;99.90;;;;;;5085560;28;20461;-87
2022/04/15 00:04:31;;;;;;;6.77;3.90;;;15.30;99.90;;;;;;5080680;28;20444;-88
2022/04/15 00:06:58;;;;;;;6.00;3.30;;;15.20;99.90;;;;;;5082114;28;20446;-87
2022/04/15 00:09:25;;;;;;;5.63;2.87;;;15.10;99.90;;;;;;5088318;28;20422;-88
2022/04/15 00:11:53;;;;;;;6.00;3.37;;;15.10;99.90;;;;;;5097027;28;20526;-87
2022/04/15 00:14:20;;;;;;;6.07;3.87;;;15.20;99.90;;;;;;5097176;28;20426;-86
2022/04/15 00:16:49;;;;;;;6.93;3.10;;;15.20;99.90;;;;;;5094841;28;20447;-87
2022/04/15 00:19:16;;;;;;;4.70;3.10;;;15.10;99.90;;;;;;5094537;28;20865;-87
2022/04/15 00:21:43;;;;;;;7.80;3.50;;;15.10;99.90;;;;;;5089191;28;20460;-87
2022/04/15 00:24:10;;;;;;;7.30;3.40;;;15.10;99.90;;;;;;5085070;28;20455;-86
2022/04/15 00:26:37;;;;;;;5.37;3.10;;;15.00;99.90;;;;;;5090215;28;20478;-87
2022/04/15 00:29:06;;;;;;;6.30;3.50;;;15.10;99.90;;;;;;5092199;28;20482;-86
2022/04/15 00:31:33;;;;;;;5.87;3.00;;;15.10;99.90;;;;;;5092183;28;20461;-88
2022/04/15 00:34:02;;;;;;;7.20;3.30;;;15.10;99.90;;;;;;5086096;28;20451;-87
2022/04/15 00:36:29;;;;;;;5.90;3.27;;;15.00;99.90;;;;;;5085128;28;20533;-86
2022/04/15 00:38:57;;;;;;;7.80;3.30;;;15.00;99.90;;;;;;5085914;28;20475;-88
2022/04/15 00:41:23;;;;;;;6.80;2.87;;;14.90;99.90;;;;;;5084994;28;20490;-87
2022/04/15 00:43:54;;;;;;;5.93;3.60;;;15.00;99.90;;;;;;5084603;28;20440;-87
2022/04/15 00:46:21;;;;;;;7.90;3.57;;;15.00;99.90;;;;;;5083879;28;20506;-88
2022/04/15 00:48:48;;;;;;;6.03;3.10;;;15.00;99.90;;;;;;5084770;28;20527;-86
2022/04/15 00:51:16;;;;;;;5.63;3.30;;;14.90;99.90;;;;;;5088290;28;20498;-88
2022/04/15 00:53:45;;;;;;;4.87;2.97;;;14.90;99.90;;;;;;5096642;28;20449;-88
2022/04/15 00:56:13;;;;;;;6.00;3.30;;;14.80;99.90;;;;;;5087316;28;20468;-88
2022/04/15 00:58:41;;;;;;;5.30;3.43;;;14.90;99.90;;;;;;5085682;28;20527;-87
2022/04/15 01:01:11;;;;;;;5.37;2.73;;;14.80;99.90;;;;;;5084814;28;20459;-87
2022/04/15 01:03:38;;;;;;;6.67;3.43;;;14.90;99.90;;;;;;5084855;28;20432;-86
2022/04/15 01:06:08;;;;;;;7.40;3.90;;;14.90;99.90;;;;;;5165535;22;20551;-87
2022/04/15 01:08:46;;;;;;;6.53;3.40;;;14.70;99.90;;;;;;5069209;28;20763;-88
2022/04/15 01:15:06;;;;;;;5.10;3.37;;;14.70;99.90;;;;;;4962591;28;20423;-86
2022/04/15 01:17:35;;;;;;;6.40;2.93;;;14.70;99.90;;;;;;5073122;28;20838;-87
2022/04/15 01:20:17;;;;;;;6.20;2.93;;;14.70;99.90;;;;;;5069768;28;21013;-87
2022/04/15 01:22:46;;;;;;;6.20;3.47;;;14.70;99.90;;;;;;5066852;28;20446;-86
2022/04/15 01:25:19;;;;;;;6.20;3.57;;;14.70;99.90;;;;;;5065415;28;20437;-87
2022/04/15 01:27:51;;;;;;;7.70;3.00;;;14.70;99.90;;;;;;5063949;28;20435;-86
2022/04/15 01:30:20;;;;;;;6.40;2.90;;;14.70;99.90;;;;;;5062247;28;20450;-86
2022/04/15 01:32:49;;;;;;;10.10;3.77;;;14.70;99.90;;;;;;5063514;28;20933;-86
2022/04/15 01:35:18;;;;;;;6.60;3.50;;;14.70;99.90;;;;;;5065970;28;20427;-87
2022/04/15 01:37:49;;;;;;;6.70;3.63;;;14.70;99.90;;;;;;5065401;28;20431;-87
2022/04/15 01:40:37;;;;;;;5.50;3.17;;;14.60;99.90;;;;;;5065324;28;20461;-86
2022/04/15 01:43:04;;;;;;;4.60;2.93;;;14.60;99.90;;;;;;5065370;28;20781;-86
2022/04/15 01:48:16;;;;;;;7.03;3.63;;;14.60;99.90;;;;;;5112440;22;20463;-87
2022/04/15 01:50:43;;;;;;;7.93;3.33;;;14.60;99.90;;;;;;5062474;28;20452;-86
2022/04/15 01:53:13;;;;;;;5.33;3.10;;;14.50;99.90;;;;;;5061523;28;20465;-87
2022/04/15 01:55:44;;;;;;;6.23;3.33;;;14.50;99.90;;;;;;5061780;28;20441;-87
2022/04/15 01:58:11;;;;;;;5.33;3.20;;;14.50;99.90;;;;;;5071039;28;20451;-87
2022/04/15 02:00:38;;;;;;;6.10;3.77;;;14.40;99.90;;;;;;5064332;28;20477;-86
2022/04/15 02:03:05;;;;;;;12.53;3.93;;;14.40;99.90;;;;;;5060779;28;20439;-86
2022/04/15 02:05:35;;;;;;;6.17;3.17;;;14.40;99.90;;;;;;5062209;28;20519;-85
2022/04/15 02:08:02;;;;;;;7.63;3.17;;;14.40;99.90;;;;;;5064672;28;20933;-86
2022/04/15 02:10:37;;;;;;;8.50;4.00;;;14.30;99.90;;;;;;5064200;28;20433;-86
2022/04/15 02:13:06;;;;;;;8.57;3.70;;;14.20;99.90;;;;;;5064674;28;20517;-87
2022/04/15 02:15:36;;;;;;;5.97;3.40;;;14.20;99.90;;;;;;5064510;28;20510;-85
2022/04/15 02:18:03;;;;;;;4.93;3.33;;;14.20;99.90;;;;;;5067804;28;20448;-88
2022/04/15 02:20:36;;;;;;;6.70;3.23;;;14.30;99.90;;;;;;5076158;28;20479;-88
2022/04/15 02:23:04;;;;;;;5.23;3.40;;;14.20;99.90;;;;;;5069686;28;20448;-88
2022/04/15 02:25:32;;;;;;;5.77;3.00;;;14.20;99.90;;;;;;5065875;28;20467;-87
2022/04/15 02:28:02;;;;;;;5.10;3.40;;;14.20;99.90;;;;;;5064800;28;20415;-87
2022/04/15 02:30:37;;;;;;;7.57;3.80;;;14.30;99.90;;;;;;5063995;28;20444;-87
2022/04/15 02:33:04;;;;;;;5.57;3.33;;;14.40;99.90;;;;;;5064936;28;20443;-88
2022/04/15 02:35:37;;;;;;;6.30;3.70;;;14.20;99.90;;;;;;5065678;28;20824;-85
2022/04/15 02:38:06;;;;;;;6.53;3.67;;;14.20;99.90;;;;;;5076046;28;20489;-87
2022/04/15 02:40:34;;;;;;;4.90;3.00;;;14.20;99.90;;;;;;5078636;28;20472;-85
2022/04/15 02:43:02;;;;;;;8.40;3.20;;;14.10;99.90;;;;;;5072812;28;20449;-87
2022/04/15 02:45:31;;;;;;;8.20;3.20;;;14.10;99.90;;;;;;5078862;28;20423;-88
2022/04/15 02:48:02;;;;;;;4.97;2.93;;;14.10;99.90;;;;;;5056728;28;20517;-87
2022/04/15 02:50:29;;;;;;;7.57;3.60;;;14.00;99.90;;;;;;5053117;28;20501;-87
2022/04/15 02:52:58;;;;;;;5.40;3.07;;;14.10;99.90;;;;;;5051566;28;20411;-85
2022/04/15 02:55:26;;;;;;;5.50;2.80;;;14.10;99.90;;;;;;5055675;28;20431;-88
2022/04/15 02:57:53;;;;;;;7.93;3.20;;;14.10;99.90;;;;;;5044336;28;20440;-87
2022/04/15 03:00:20;;;;;;;5.70;3.70;;;14.10;99.90;;;;;;5044700;28;20455;-87
2022/04/15 03:02:54;;;;;;;4.80;2.90;;;14.00;99.90;;;;;;5044447;28;20428;-87
2022/04/15 03:05:23;;;;;;;5.20;2.90;;;14.00;99.90;;;;;;5045114;28;20431;-86
2022/04/15 03:07:55;;;;;;;7.50;3.10;;;14.00;99.90;;;;;;5047340;28;20572;-88
2022/04/15 03:10:22;;;;;;;6.30;3.87;;;14.00;99.90;;;;;;5046944;28;20488;-87
2022/04/15 03:12:55;;;;;;;7.70;3.10;;;14.00;99.90;;;;;;5043524;28;20487;-88
2022/04/15 03:15:24;;;;;;;5.77;3.40;;;13.90;99.90;;;;;;5043804;28;20439;-88
2022/04/15 03:17:55;;;;;;;6.10;3.73;;;13.90;99.90;;;;;;5048263;28;20425;-87
2022/04/15 03:20:23;;;;;;;7.23;3.13;;;13.80;99.90;;;;;;5052631;28;20483;-86
2022/04/15 03:22:50;;;;;;;6.87;3.53;;;13.90;99.90;;;;;;5054221;28;20438;-88
2022/04/15 03:25:19;;;;;;;5.77;2.83;;;13.80;99.90;;;;;;5046115;28;20424;-86
2022/04/15 03:27:47;;;;;;;6.47;3.23;;;13.80;99.90;;;;;;5052083;28;20544;-86
2022/04/15 03:30:15;;;;;;;5.37;3.30;;;13.80;99.90;;;;;;5044641;28;20504;-86
2022/04/15 03:32:56;;;;;;;5.57;3.67;;;13.80;99.90;;;;;;5042976;28;20475;-84
2022/04/15 03:35:25;;;;;;;5.60;3.70;;;13.90;99.90;;;;;;5042730;28;20866;-87
2022/04/15 03:37:52;;;;;;;5.57;3.23;;;13.90;99.90;;;;;;5041828;28;20531;-87
2022/04/15 03:40:21;;;;;;;4.90;3.40;;;13.90;99.90;;;;;;5042236;28;20506;-87
2022/04/15 03:42:49;;;;;;;4.90;3.40;;;13.80;99.90;;;;;;5043576;28;20443;-87
2022/04/15 03:45:19;;;;;;;10.00;4.23;;;13.80;99.90;;;;;;5044238;28;20424;-87
2022/04/15 03:47:46;;;;;;;6.13;3.20;;;13.60;99.90;;;;;;5058881;28;20829;-87
2022/04/15 03:50:20;;;;;;;6.10;3.17;;;13.70;99.90;;;;;;5063364;28;20415;-87
2022/04/15 03:52:48;;;;;;;7.97;3.77;;;13.60;99.90;;;;;;5070043;28;20468;-87
2022/04/15 03:55:18;;;;;;;4.43;2.73;;;13.60;99.90;;;;;;5073076;28;20461;-87
2022/04/15 03:57:45;;;;;;;6.73;3.53;;;13.50;99.90;;;;;;5069799;28;20427;-88
2022/04/15 04:00:14;;;;;;;8.67;4.13;;;13.50;99.90;;;;;;5063651;28;20542;-86
2022/04/15 04:02:44;;;;;;;5.20;3.47;;;13.40;99.90;;;;;;5064128;28;20456;-85
2022/04/15 04:05:15;;;;;;;6.70;3.77;;;13.50;99.90;;;;;;5062476;28;20449;-87
2022/04/15 04:07:44;;;;;;;7.00;3.60;;;13.50;99.90;;;;;;5063016;28;20454;-87
2022/04/15 04:10:12;;;;;;;7.27;3.50;;;13.50;99.90;;;;;;5062857;28;20445;-86
2022/04/15 04:12:39;;;;;;;5.40;3.10;;;13.40;99.90;;;;;;5067229;28;20423;-86
2022/04/15 04:15:09;;;;;;;5.47;3.57;;;13.30;99.90;;;;;;5074701;28;20433;-86
2022/04/15 04:17:36;;;;;;;6.30;3.77;;;13.30;99.90;;;;;;5070484;28;20793;-87
2022/04/15 04:20:13;;;;;;;4.97;3.60;;;13.30;99.90;;;;;;5062701;28;20456;-86
2022/04/15 04:22:41;;;;;;;5.03;3.33;;;13.30;99.90;;;;;;5061873;28;20392;-86
2022/04/15 04:25:11;;;;;;;6.40;3.80;;;13.30;99.90;;;;;;5061454;28;20799;-86
2022/04/15 04:27:41;;;;;;;5.10;3.53;;;13.20;99.90;;;;;;5063025;28;20473;-86
2022/04/15 04:30:10;;;;;;;7.40;4.30;;;13.20;99.90;;;;;;5064856;28;20443;-86
2022/04/15 04:32:40;;;;;;;4.63;3.40;;;13.20;99.90;;;;;;5074427;28;20463;-86
2022/04/15 04:35:08;;;;;;;7.80;4.10;;;13.10;99.90;;;;;;5066292;28;20410;-85
2022/04/15 04:37:35;;;;;;;6.20;3.70;;;13.00;99.90;;;;;;5063271;28;20457;-87
2022/04/15 04:40:03;;;;;;;7.43;3.60;;;13.00;99.90;;;;;;5062155;28;20544;-85
2022/04/15 04:42:31;;;;;;;6.63;3.47;;;13.00;99.90;;;;;;5062151;28;20498;-85
2022/04/15 04:44:59;;;;;;;8.03;3.80;;;13.00;99.90;;;;;;5061652;28;20937;-85
2022/04/15 04:47:26;;;;;;;6.40;3.53;;;12.90;99.90;;;;;;5062376;28;21000;-87
2022/04/15 04:49:55;;;;;;;8.50;3.77;;;12.90;99.90;;;;;;5062673;28;20821;-86
2022/04/15 04:52:23;;;;;;;6.30;3.70;;;12.90;99.90;;;;;;5073624;28;20487;-86
2022/04/15 04:54:53;;;;;;;7.50;3.67;;;12.90;99.90;;;;;;5060137;28;20925;-86
2022/04/15 04:57:22;;;;;;;6.00;3.70;;;12.80;99.90;;;;;;5069036;28;20854;-83
2022/04/15 04:59:56;;;;;;;6.93;3.53;;;12.80;99.90;;;;;;5071404;28;20480;-87
2022/04/15 05:02:23;;;;;;;6.53;3.57;;;12.80;99.90;;;;;;5061773;28;20415;-86
2022/04/15 05:04:50;;;;;;;6.60;3.97;;;12.80;99.90;;;;;;5060175;28;20419;-86
2022/04/15 05:07:20;;;;;;;8.70;4.20;;;12.80;99.90;;;;;;5059912;28;20552;-86
2022/04/15 05:09:47;;;;;;;6.20;4.13;;;12.90;99.90;;;;;;5059825;28;20506;-86
2022/04/15 05:12:14;;;;;;;5.63;3.60;;;12.90;99.90;;;;;;5060387;28;20524;-86
2022/04/15 05:14:44;;;;;;;7.10;4.30;;;12.80;99.90;;;;;;5059849;28;20427;-86
2022/04/15 05:17:27;;;;;;;6.93;3.70;;;12.90;99.90;;;;;;5060298;28;20447;-87
2022/04/15 05:19:56;;;;;;;5.97;3.77;;;12.90;99.90;;;;;;5061352;28;20563;-86
2022/04/15 05:22:24;;;;;;;6.27;4.10;;;12.90;99.90;;;;;;5067587;28;20474;-86
2022/04/15 05:24:54;;;;;;;7.17;3.90;;;12.80;99.90;;;;;;5067141;28;20509;-85
2022/04/15 05:27:22;;;;;;;5.73;4.20;;;12.90;99.90;;;;;;5074175;28;20441;-84
2022/04/15 05:29:49;;;;;;;5.80;4.20;;;12.90;99.90;;;;;;5076182;28;20426;-86
2022/04/15 05:32:18;;;;;;;6.73;4.37;;;12.90;99.90;;;;;;5076161;28;20449;-84
2022/04/15 05:34:52;;;;;;;6.80;3.83;;;12.90;99.90;;;;;;5075461;28;20448;-84
2022/04/15 05:37:19;;;;;;;5.93;4.10;;;12.90;99.90;;;;;;5075160;28;20484;-85
2022/04/15 05:39:46;;;;;;;6.90;4.70;;;12.90;99.90;;;;;;5072961;28;20470;-84
2022/04/15 05:42:13;;;;;;;12.10;3.77;;;13.00;99.90;;;;;;5073175;28;20440;-85
2022/04/15 05:44:45;;;;;;;7.97;4.67;;;13.00;99.90;;;;;;5064564;28;20445;-87
2022/04/15 05:47:13;;;;;;;7.57;4.40;;;13.00;99.90;;;;;;5060787;28;21044;-86
2022/04/15 05:49:40;;;;;;;6.60;3.77;;;13.10;99.90;;;;;;5060016;28;20458;-87
2022/04/15 05:52:08;;;;;;;9.23;4.37;;;13.20;99.90;;;;;;5060633;28;20473;-87
2022/04/15 05:54:37;;;;;;;7.60;4.70;;;13.20;99.90;;;;;;5061619;28;20535;-87
2022/04/15 05:57:06;;;;;;;5.90;3.97;;;13.30;99.90;;;;;;5061475;28;20454;-86
2022/04/15 05:59:33;;;;;;;7.37;4.23;;;13.30;99.90;;;;;;5061599;28;20873;-87
2022/04/15 06:02:00;;;;;;;8.93;4.40;;;13.40;99.90;;;;;;5062850;28;20447;-85
2022/04/15 06:04:28;;;;;;;7.60;4.57;;;13.60;99.90;;;;;;5060458;28;20942;-86
2022/04/15 06:07:16;;;;;;;7.40;4.73;;;13.60;99.90;;;;;;5059713;28;20534;-86
2022/04/15 06:09:46;;;;;;;5.87;4.67;;;13.80;99.90;;;;;;5063043;28;20403;-87
2022/04/15 06:12:13;;;;;;;6.83;4.37;;;13.90;99.90;;;;;;5059567;28;20461;-87
2022/04/15 06:14:41;;;;;;;9.73;5.20;;;13.90;99.90;;;;;;5066843;28;20419;-86
2022/04/15 06:17:08;;;;;;;7.50;5.13;;;14.00;99.90;;;;;;5065218;28;20819;-86
2022/04/15 06:19:47;;;;;;;6.17;4.67;;;14.10;99.90;;;;;;5060650;28;20434;-84
2022/04/15 06:22:22;;;;;;;6.27;4.97;;;14.20;99.90;;;;;;5063929;28;20524;-84
2022/04/15 06:25:00;;;;;;;8.80;5.53;;;14.30;99.90;;;;;;5071798;28;20407;-87
2022/04/15 06:27:56;;;;;;;7.27;5.13;;;14.40;99.90;;;;;;5059375;28;20511;-85
2022/04/15 06:30:35;;;;;;;6.97;4.67;;;14.40;99.90;;;;;;5059360;28;20449;-86
2022/04/15 06:33:05;;;;;;;7.40;5.70;;;14.50;99.90;;;;;;5057694;28;20423;-84
2022/04/15 06:35:39;;;;;;;7.80;5.13;;;14.60;99.90;;;;;;5055688;28;20418;-84
2022/04/15 06:38:08;;;;;;;8.07;5.80;;;14.70;99.90;;;;;;5057004;28;20784;-85
2022/04/15 06:40:44;;;;;;;10.40;5.80;;;14.70;99.90;;;;;;5055928;28;20487;-84
2022/04/15 06:43:19;;;;;;;9.53;6.53;;;14.80;99.90;;;;;;5055833;28;20444;-85
2022/04/15 06:45:49;;;;;;;10.10;6.57;;;14.90;99.90;;;;;;5056085;28;20427;-84
2022/04/15 06:48:48;;;;;;;9.50;6.70;;;15.10;99.90;;;;;;5057027;28;20500;-86
2022/04/15 06:51:17;;;;;;;10.03;8.17;;;15.20;99.90;;;;;;5059421;28;20447;-85
2022/04/15 06:53:48;;;;;;;17.73;7.20;;;15.30;99.90;;;;;;5059194;28;20957;-84
2022/04/15 06:56:16;;;;;;;13.73;9.37;;;15.40;99.90;;;;;;5060153;28;20487;-84
2022/04/15 06:58:50;;;;;;;16.03;8.83;;;15.40;99.90;;;;;;5060244;28;20500;-85
2022/04/15 07:01:17;;;;;;;12.17;9.00;;;15.50;99.90;;;;;;5065769;28;20460;-85
2022/04/15 07:03:48;;;;;;;10.53;8.10;;;15.60;99.90;;;;;;5075000;28;20456;-84
2022/04/15 07:06:21;;;;;;;15.73;8.70;;;15.70;99.90;;;;;;5074847;28;20465;-85
2022/04/15 07:09:30;;;;;;;17.57;9.10;;;15.90;99.90;;;;;;5092460;22;20501;-87
2022/04/15 07:19:02;;;;;;;;;;;;;;;;;;;;;
2022/04/15 07:39:35;;;;;;;14.20;10.37;;;16.70;99.90;;;;;;5037443;28;20457;-87
2022/04/15 07:46:35;;;;;;;16.83;11.77;;;16.70;99.90;;;;;;5024745;28;20458;-87
2022/04/15 08:12:48;;;;;;;;;;;;;;;;;;;;;
2022/04/15 08:22:35;;;;;;;;;;;;;;;;;;;;;
2022/04/15 08:25:14;;;;;;;15.13;13.50;;;17.50;99.90;;;;;;5024885;28;20440;-85
2022/04/15 08:28:14;;;;;;;16.13;13.30;;;17.40;99.90;;;;;;5024720;28;20553;-87
2022/04/15 08:31:22;;;;;;;18.27;14.20;;;17.50;99.90;;;;;;5024221;28;20421;-87
2022/04/15 08:34:32;;;;;;;;;;;;;;;;;;;;;
2022/04/15 08:37:26;;;;;;;19.80;14.97;;;17.50;99.90;;;;;;5029917;28;20449;-88
2022/04/15 08:40:54;;;;;;;;;;;;;;;;;;;;;
2022/04/15 08:43:32;;;;;;;18.10;14.77;;;17.60;99.90;;;;;;4983748;28;20454;-88
2022/04/15 08:46:27;;;;;;;17.37;14.80;;;17.80;99.90;;;;;;5025239;28;20546;-87
2022/04/15 08:49:14;;;;;;;22.03;14.80;;;17.90;99.90;;;;;;5036500;28;20550;-86
2022/04/15 08:52:02;;;;;;;17.63;13.73;;;17.80;99.90;;;;;;5028770;28;20522;-87
2022/04/15 08:55:12;;;;;;;22.57;17.90;;;17.70;99.90;;;;;;5024698;28;20457;-87
2022/04/15 09:08:07;;;;;;;17.33;12.80;;;18.40;99.90;;;;;;4938350;28;20456;-88
2022/04/15 09:10:42;;;;;;;19.27;14.70;;;18.60;99.90;;;;;;5027958;28;20429;-88
2022/04/15 09:13:39;;;;;;;19.40;16.93;;;18.30;99.90;;;;;;5027660;28;20536;-89
2022/04/15 09:16:21;;;;;;;19.00;17.00;;;18.30;99.90;;;;;;5029361;28;20470;-88
2022/04/15 09:19:09;;;;;;;20.93;16.17;;;18.30;99.90;;;;;;5033591;28;20558;-88
2022/04/15 09:21:37;;;;;;;18.10;15.37;;;18.30;99.90;;;;;;5030427;28;20523;-87
2022/04/15 09:24:17;;;;;;;21.13;18.10;;;18.40;99.90;;;;;;5020825;28;20455;-87
2022/04/15 09:26:48;;;;;;;23.67;17.00;;;18.40;99.90;;;;;;5033458;28;20756;-85
2022/04/15 09:29:17;;;;;;;20.40;18.10;;;18.40;99.90;;;;;;5027736;28;20545;-87
2022/04/15 09:31:49;;;;;;;18.90;17.00;;;18.50;99.90;;;;;;5030555;28;20474;-87
2022/04/15 09:40:26;;;;;;;16.90;15.07;;;18.80;99.80;;;;;;5020430;28;20446;-88
2022/04/15 09:43:22;;;;;;;20.83;18.10;;;18.80;98.90;;;;;;5023433;28;20515;-87
2022/04/15 09:46:29;;;;;;;;;;;;;;;;;;;;;
2022/04/15 09:49:20;;;;;;;19.80;17.70;;;18.70;98.40;;;;;;5022197;28;20473;-87
2022/04/15 09:51:52;;;;;;;18.87;16.87;;;18.60;98.40;;;;;;5022421;28;20775;-88
2022/04/15 09:54:24;;;;;;;19.50;17.40;;;18.60;98.80;;;;;;5021902;28;20806;-87
2022/04/15 09:57:14;;;;;;;20.30;16.30;;;18.50;99.50;;;;;;5022685;28;20508;-87
2022/04/15 10:02:50;;;;;;;18.17;16.20;;;18.50;99.90;;;;;;5035184;28;20556;-86
2022/04/15 10:05:31;;;;;;;17.47;15.70;;;18.60;98.90;;;;;;5031695;28;20966;-87
2022/04/15 10:11:59;;;;;;;14.83;12.83;;;18.90;97.90;;;;;;5018063;28;20439;-87
2022/04/15 10:14:29;;;;;;;17.93;12.87;;;19.00;96.90;;;;;;4956193;28;20486;-87
2022/04/15 10:17:04;;;;;;;18.47;16.57;;;19.10;97.40;;;;;;5023351;28;20454;-86
2022/04/15 10:19:36;;;;;;;16.70;15.00;;;18.80;97.90;;;;;;5096316;22;20503;-88
2022/04/15 10:25:03;;;;;;;15.77;13.77;;;19.00;97.90;;;;;;5065920;28;20449;-87
2022/04/15 10:27:47;;;;;;;14.30;11.70;;;19.20;97.00;;;;;;5067557;28;20453;-87
2022/04/15 10:30:32;;;;;;;15.80;13.40;;;19.30;96.20;;;;;;5069947;28;20506;-87
2022/04/15 10:36:38;;;;;;;15.87;13.70;;;19.20;97.20;;;;;;5034808;28;20519;-87
2022/04/15 10:39:37;;;;;;;13.97;12.47;;;19.10;98.40;;;;;;5065997;28;20480;-87
2022/04/15 10:42:29;;;;;;;15.83;13.00;;;19.10;98.60;;;;;;5065861;28;20571;-88
2022/04/15 10:45:21;;;;;;;14.30;12.57;;;19.10;98.40;;;;;;5067102;28;20416;-87
2022/04/15 10:52:03;;;;;;;15.10;12.80;;;18.80;97.80;;;;;;4991960;28;20496;-86
2022/04/15 10:54:46;;;;;;;13.03;11.60;;;19.10;98.00;;;;;;5000517;28;20463;-87
2022/04/15 11:03:02;;;;;;;12.70;10.50;;;19.60;94.60;;;;;;5096742;28;20470;-89
2022/04/15 11:05:55;;;;;;;13.70;11.27;;;19.20;95.30;;;;;;5088448;28;20455;-87
2022/04/15 11:12:04;;;;;;;16.30;11.73;;;19.20;95.60;;;;;;5070487;28;20416;-89
2022/04/15 11:14:46;;;;;;;13.13;10.57;;;19.20;95.70;;;;;;5073860;28;20896;-87
2022/04/15 11:17:44;;;;;;;13.57;10.27;;;19.20;95.50;;;;;;5072376;28;20434;-88
2022/04/15 11:20:18;;;;;;;12.60;9.77;;;19.10;95.10;;;;;;5071512;28;20452;-90
2022/04/15 11:23:14;;;;;;;12.47;10.60;;;18.90;94.90;;;;;;5068857;28;20475;-89
2022/04/15 11:35:35;;;;;;;12.87;10.33;;;19.80;93.80;;;;;;4965035;28;20444;-87
2022/04/15 11:38:18;;;;;;;12.47;10.83;;;19.80;93.80;;;;;;5067996;28;20499;-87
2022/04/15 11:41:08;;;;;;;15.70;11.53;;;19.60;94.10;;;;;;5078100;28;20433;-87
2022/04/15 11:49:51;;;;;;;13.97;11.80;;;19.30;95.40;;;;;;5068719;28;20457;-88
2022/04/15 11:52:27;;;;;;;14.10;12.60;;;19.40;95.40;;;;;;5074337;28;20543;-88
2022/04/15 11:55:16;;;;;;;15.53;12.00;;;19.50;95.40;;;;;;5066962;28;20506;-88
2022/04/15 11:57:45;;;;;;;13.70;11.97;;;19.60;95.20;;;;;;5073677;28;20482;-87
2022/04/15 12:00:34;;;;;;;12.67;10.67;;;19.70;94.90;;;;;;5105143;28;20435;-88
2022/04/15 12:03:18;;;;;;;12.10;10.33;;;20.00;94.10;;;;;;5104868;28;20474;-87
2022/04/15 12:05:51;;;;;;;12.53;9.93;;;20.10;93.60;;;;;;5104344;28;20813;-88
2022/04/15 12:08:43;;;;;;;14.27;9.67;;;19.80;93.00;;;;;;5111585;28;20558;-88
2022/04/15 12:25:01;;;;;;;14.93;11.93;;;20.70;91.60;;;;;;5056650;28;20441;-86
2022/04/15 12:31:48;;;;;;;10.80;8.50;;;19.70;92.40;;;;;;5034765;28;20981;-87
2022/04/15 12:34:46;;;;;;;16.03;11.80;;;19.60;92.20;;;;;;5048673;28;20457;-85
2022/04/15 12:37:44;;;;;;;13.60;10.50;;;19.70;92.70;;;;;;5115592;28;20450;-87
2022/04/15 12:40:36;;;;;;;10.40;8.13;;;19.80;92.20;;;;;;5107302;28;20549;-88
2022/04/15 12:43:41;;;;;;;9.77;8.27;;;20.00;91.20;;;;;;5108034;28;20485;-88
2022/04/15 12:46:36;;;;;;;9.63;7.53;;;19.80;91.00;;;;;;5063596;28;20569;-88
2022/04/15 12:52:26;;;;;;;11.17;8.07;;;19.70;90.90;;;;;;5101565;28;20431;-87
2022/04/15 12:55:23;;;;;;;;;;;;;;;;;;;;;
2022/04/15 12:58:11;;;;;;;11.23;7.83;;;19.80;91.00;;;;;;5106602;28;20461;-89
2022/04/15 13:05:06;;;;;;;9.57;7.70;;;19.90;90.30;;;;;;5112366;28;20455;-87
2022/04/15 13:13:37;;;;;;;8.97;6.37;;;20.50;87.60;;;;;;5106327;28;20439;-83
2022/04/15 13:27:17;;;;;;;8.47;5.70;;;20.40;84.50;;;;;;4947032;29;20454;-87
2022/04/15 13:51:57;;;;;;;7.83;7.03;;;19.90;87.00;;;;;;4791284;30;20445;-86
2022/04/15 13:58:50;;;;;;;6.63;4.60;;;19.70;86.40;;;;;;4827879;29;20436;-85
2022/04/15 14:05:14;;;;;;;7.43;6.30;;;19.80;85.80;;;;;;4938469;29;20502;-85
2022/04/15 14:07:56;;;;;;;8.50;6.80;;;19.90;85.60;;;;;;4963456;28;20438;-85
2022/04/15 14:10:36;;;;;;;8.20;6.17;;;20.00;86.80;;;;;;5050256;28;20468;-84
2022/04/15 14:13:12;;;;;;;9.03;8.13;;;20.20;87.80;;;;;;5049315;28;20429;-85
2022/04/15 14:16:08;;;;;;;8.83;7.93;;;20.10;87.80;;;;;;5052019;28;20532;-84
2022/04/15 14:19:30;;;;;;;9.43;7.30;;;19.90;87.10;;;;;;5028009;28;20476;-84
2022/04/15 14:25:56;;;;;;;8.57;6.00;;;20.20;84.80;;;;;;5036958;28;20441;-86
2022/04/15 14:28:29;;;;;;;7.80;5.97;;;20.30;84.10;;;;;;5021475;28;20477;-86
2022/04/15 14:31:42;;;;;;;10.80;6.73;;;20.60;83.00;;;;;;5040928;28;20484;-86
2022/04/15 14:37:40;;;;;;;9.43;6.80;;;20.60;82.20;;;;;;5022512;28;20487;-86
2022/04/15 14:46:54;;;;;;;9.40;6.27;;;20.30;84.30;;;;;;5058094;28;20528;-87
2022/04/15 14:49:22;;;;;;;7.10;6.23;;;20.40;83.40;;;;;;5060014;28;20476;-84
2022/04/15 14:52:20;;;;;;;10.73;6.90;;;20.60;83.60;;;;;;5066588;28;20547;-86
2022/04/15 14:54:50;;;;;;;7.10;6.10;;;20.90;80.80;;;;;;5043671;28;20465;-86
2022/04/15 14:57:26;;;;;;;8.57;5.53;;;21.10;79.90;;;;;;5068137;28;20452;-85
2022/04/15 14:59:55;;;;;;;7.60;5.53;;;21.40;79.70;;;;;;5065771;28;20460;-87
2022/04/15 15:02:29;;;;;;;9.07;5.27;;;21.60;78.40;;;;;;5060058;28;21177;-86
2022/04/15 15:05:15;;;;;;;7.60;5.87;;;21.90;75.90;;;;;;5060693;28;20459;-86
2022/04/15 15:07:42;;;;;;;8.57;5.67;;;22.10;75.00;;;;;;5061458;28;20466;-87
2022/04/15 15:10:24;;;;;;;10.73;6.40;;;22.00;74.20;;;;;;5066645;28;20516;-85
2022/04/15 15:16:24;;;;;;;6.63;4.80;;;22.10;73.10;;;;;;5057446;28;20817;-87
2022/04/15 15:19:02;;;;;;;9.40;7.20;;;22.20;72.80;;;;;;5063183;28;20448;-87
2022/04/15 15:38:15;;;;;;;5.57;4.43;;;20.90;73.30;;;;;;5038067;28;20436;-85
2022/04/15 15:43:48;;;;;;;5.50;4.10;;;21.40;71.70;;;;;;5057121;28;20483;-86
2022/04/15 15:46:57;;;;;;;8.30;4.40;;;21.70;70.00;;;;;;5063509;28;20455;-86
2022/04/15 15:49:36;;;;;;;5.63;3.60;;;21.70;67.90;;;;;;5053244;28;20579;-86
2022/04/15 15:58:33;;;;;;;5.53;3.70;;;21.80;67.30;;;;;;5057728;28;20492;-84
2022/04/15 16:01:26;;;;;;;4.50;2.90;;;21.20;68.30;;;;;;4980146;28;20531;-86
2022/04/15 16:04:28;;;;;;;5.50;3.30;;;20.90;69.70;;;;;;4980036;28;20474;-86
2022/04/15 16:07:25;;;;;;;5.53;3.20;;;20.80;68.00;;;;;;5061085;28;20442;-84
2022/04/15 16:14:01;;;;;;;7.47;3.47;;;20.30;70.90;;;;;;5050079;28;20445;-86
2022/04/15 16:16:44;;;;;;;5.80;3.00;;;20.00;71.80;;;;;;5060420;28;20407;-85
2022/04/15 16:22:56;;;;;;;5.53;3.67;;;19.90;72.30;;;;;;5023722;28;20487;-85
2022/04/15 16:25:27;;;;;;;11.20;4.70;;;19.70;72.60;;;;;;5066002;28;20454;-85
2022/04/15 16:28:27;;;;;;;5.17;3.07;;;19.70;73.00;;;;;;5067884;28;20507;-86
2022/04/15 16:30:55;;;;;;;4.90;3.00;;;19.80;72.90;;;;;;5062304;28;20549;-86
2022/04/15 16:33:35;;;;;;;4.60;2.50;;;20.00;72.30;;;;;;5061559;28;20433;-85
2022/04/15 16:36:10;;;;;;;6.07;3.03;;;20.00;72.20;;;;;;5062686;28;20411;-85
2022/04/15 16:41:54;;;;;;;5.63;2.00;;;19.70;72.60;;;;;;5060641;28;20446;-86
2022/04/15 16:44:34;;;;;;;3.73;2.13;;;19.60;72.80;;;;;;5042467;28;20484;-85
2022/04/15 16:47:20;;;;;;;3.27;1.97;;;19.50;72.40;;;;;;5047764;28;20452;-85
2022/04/15 16:49:50;;;;;;;3.93;2.20;;;19.50;72.30;;;;;;5047124;28;20461;-83
2022/04/15 16:52:24;;;;;;;4.10;1.90;;;19.50;72.70;;;;;;5040567;28;20461;-83
2022/04/15 17:00:54;;;;;;;3.70;1.90;;;19.60;72.10;;;;;;5046052;28;20414;-85
2022/04/15 17:03:54;;;;;;;4.73;2.20;;;19.50;72.20;;;;;;5054248;28;20473;-85
2022/04/15 17:06:40;;;;;;;4.73;2.20;;;19.30;72.50;;;;;;5047134;28;20450;-86
2022/04/15 17:09:49;;;;;;;3.97;2.10;;;19.20;73.20;;;;;;5051216;28;20529;-86
2022/04/15 17:12:27;;;;;;;3.10;1.70;;;19.30;73.90;;;;;;5047015;28;20449;-84
2022/04/15 17:15:03;;;;;;;3.70;1.93;;;19.40;73.40;;;;;;5044506;28;20439;-85
2022/04/15 17:17:55;;;;;;;4.10;1.67;;;19.50;73.00;;;;;;5044319;28;20395;-85
2022/04/15 17:20:27;;;;;;;3.50;1.77;;;19.40;73.00;;;;;;5047741;28;20458;-83
2022/04/15 17:35:47;;;;;;;3.63;2.00;;;19.10;73.60;;;;;;5038980;28;20415;-87
2022/04/15 17:38:21;;;;;;;5.77;2.47;;;19.10;74.00;;;;;;5047496;28;20452;-86
2022/04/15 17:40:57;;;;;;;5.93;3.00;;;19.00;74.10;;;;;;5046298;28;20448;-85
2022/04/15 17:44:23;;;;;;;6.40;3.27;;;19.00;74.40;;;;;;5054419;28;20462;-86
2022/04/15 17:52:38;;;;;;;4.07;2.70;;;18.90;74.80;;;;;;5041342;28;20429;-87
2022/04/15 17:55:38;;;;;;;4.70;2.20;;;18.80;75.40;;;;;;5060074;28;20461;-86
2022/04/15 17:58:27;;;;;;;4.23;1.83;;;18.90;74.60;;;;;;5059659;28;20631;-87
2022/04/15 18:07:28;;;;;;;4.00;2.20;;;18.90;75.00;;;;;;4978861;28;20440;-85
2022/04/15 18:10:24;;;;;;;4.30;1.60;;;18.70;75.00;;;;;;4977934;28;20440;-86
2022/04/15 18:13:26;;;;;;;3.80;2.37;;;18.70;75.60;;;;;;5060000;28;20445;-85
2022/04/15 18:16:18;;;;;;;3.90;2.13;;;18.50;76.00;;;;;;5060496;28;20439;-86
2022/04/15 18:19:15;;;;;;;4.07;2.10;;;18.50;76.70;;;;;;4978595;28;20467;-85
2022/04/15 18:22:02;;;;;;;4.57;2.33;;;18.30;77.50;;;;;;5060808;28;20502;-87